Time;durP1;ratioP1;P1;durP2;ratioP2;P2;SDS_P1;SDS_P2;PMS_P1;PMS_P2;Temp;Humidity;BMP_temperature;BMP_pressure;BME280_temperature;BME280_humidity;BME280_pressure;Samples;Min_cycle;Max_cycle;Signal;HPM_P1;HPM_P2
2024/02/19 00:01:12;;;;;;;2.20;2.00;;;7.80;99.90;;;;;;4943606;28;20053;-71
2024/02/19 00:03:38;;;;;;;3.35;2.85;;;7.90;99.90;;;;;;4944844;28;20085;-70
2024/02/19 00:06:06;;;;;;;5.15;3.83;;;7.90;99.90;;;;;;4943068;28;20090;-71
2024/02/19 00:08:34;;;;;;;3.90;2.72;;;8.00;99.90;;;;;;4944261;28;20038;-70
2024/02/19 00:11:02;;;;;;;4.45;3.60;;;8.00;99.90;;;;;;4942938;28;20050;-71
2024/02/19 00:13:29;;;;;;;3.45;2.53;;;8.00;99.90;;;;;;4943059;28;20666;-70
2024/02/19 00:15:56;;;;;;;4.90;3.45;;;8.00;99.90;;;;;;4945756;28;20055;-71
2024/02/19 00:18:22;;;;;;;5.72;3.10;;;8.00;99.90;;;;;;4944149;28;20044;-69
2024/02/19 00:20:49;;;;;;;4.70;3.45;;;8.00;99.90;;;;;;4946207;28;20047;-69
2024/02/19 00:23:16;;;;;;;4.07;3.30;;;8.00;99.90;;;;;;4945298;28;20107;-69
2024/02/19 00:25:43;;;;;;;7.13;3.72;;;8.00;99.90;;;;;;4970495;28;20181;-69
2024/02/19 00:28:11;;;;;;;4.38;3.17;;;8.00;99.90;;;;;;4975841;28;20057;-70
2024/02/19 00:30:39;;;;;;;4.57;3.17;;;8.00;99.90;;;;;;4953839;28;20057;-71
2024/02/19 00:33:05;;;;;;;3.42;2.90;;;8.00;99.90;;;;;;4943813;28;20142;-69
2024/02/19 00:35:32;;;;;;;4.13;3.17;;;8.00;99.90;;;;;;4945919;28;20577;-70
2024/02/19 00:37:59;;;;;;;6.13;3.90;;;8.00;99.90;;;;;;4944266;28;20049;-70
2024/02/19 00:40:26;;;;;;;4.95;3.67;;;7.90;99.90;;;;;;4940419;28;20055;-70
2024/02/19 00:42:53;;;;;;;5.85;3.78;;;8.00;99.90;;;;;;4945881;28;20051;-70
2024/02/19 00:45:20;;;;;;;7.25;4.50;;;8.00;99.90;;;;;;4945324;28;20074;-71
2024/02/19 00:47:47;;;;;;;5.55;3.70;;;8.00;99.90;;;;;;4926954;28;20060;-70
2024/02/19 00:50:13;;;;;;;4.72;2.80;;;7.90;99.90;;;;;;4924840;28;20044;-70
2024/02/19 00:52:40;;;;;;;3.05;2.33;;;7.90;99.90;;;;;;4926394;28;20054;-70
2024/02/19 00:55:08;;;;;;;2.72;2.22;;;7.90;99.90;;;;;;4922805;28;20048;-70
2024/02/19 00:57:35;;;;;;;3.67;2.63;;;7.80;99.90;;;;;;4942439;28;20055;-70
2024/02/19 01:00:04;;;;;;;4.35;2.95;;;7.80;99.90;;;;;;4946065;28;20043;-71
2024/02/19 01:02:30;;;;;;;3.95;2.60;;;7.80;99.90;;;;;;4947473;28;20066;-71
2024/02/19 01:04:58;;;;;;;3.90;2.90;;;7.80;99.90;;;;;;4940771;28;20948;-70
2024/02/19 01:07:28;;;;;;;4.32;3.00;;;7.80;99.90;;;;;;4941854;28;20058;-70
2024/02/19 01:09:54;;;;;;;5.85;2.72;;;7.80;99.90;;;;;;4948704;28;20047;-70
2024/02/19 01:12:21;;;;;;;3.42;2.65;;;7.80;99.90;;;;;;4947594;28;20681;-70
2024/02/19 01:14:48;;;;;;;3.92;2.47;;;7.80;99.90;;;;;;4946316;28;20805;-70
2024/02/19 01:17:15;;;;;;;3.42;2.53;;;7.80;99.90;;;;;;4943235;28;20031;-70
2024/02/19 01:19:44;;;;;;;5.25;3.33;;;7.80;99.90;;;;;;4942099;28;20047;-70
2024/02/19 01:22:11;;;;;;;3.38;2.20;;;7.70;99.90;;;;;;4953423;28;20566;-70
2024/02/19 01:24:39;;;;;;;3.63;2.60;;;7.70;99.90;;;;;;4946994;28;20081;-70
2024/02/19 01:27:06;;;;;;;3.80;2.42;;;7.70;99.90;;;;;;4944978;28;20074;-70
2024/02/19 01:29:34;;;;;;;3.25;2.53;;;7.70;99.90;;;;;;4948948;28;20054;-70
2024/02/19 01:32:01;;;;;;;5.10;2.90;;;7.70;99.90;;;;;;4941080;28;20080;-69
2024/02/19 01:34:29;;;;;;;3.97;2.28;;;7.70;99.90;;;;;;4948584;28;20459;-70
2024/02/19 01:36:57;;;;;;;7.30;2.92;;;7.70;99.90;;;;;;4950154;28;20039;-70
2024/02/19 01:39:25;;;;;;;5.75;3.30;;;7.60;99.90;;;;;;4945365;28;20059;-70
2024/02/19 01:41:51;;;;;;;6.80;3.50;;;7.70;99.90;;;;;;4947172;28;20054;-70
2024/02/19 01:44:20;;;;;;;6.00;4.05;;;7.60;99.90;;;;;;4944422;28;20059;-69
2024/02/19 01:46:47;;;;;;;6.18;4.20;;;7.60;99.90;;;;;;4934722;28;20048;-69
2024/02/19 01:49:15;;;;;;;8.35;4.93;;;7.60;99.90;;;;;;4923049;28;20051;-69
2024/02/19 01:51:43;;;;;;;6.22;3.65;;;7.60;99.90;;;;;;4934918;28;20712;-69
2024/02/19 01:54:12;;;;;;;5.82;3.70;;;7.60;99.90;;;;;;4948618;28;20043;-69
2024/02/19 01:56:40;;;;;;;8.27;5.03;;;7.50;99.90;;;;;;4944657;28;20114;-69
2024/02/19 01:59:10;;;;;;;7.15;4.03;;;7.60;99.90;;;;;;4948247;28;20047;-70
2024/02/19 02:01:39;;;;;;;9.27;4.63;;;7.60;99.90;;;;;;4945844;28;20050;-69
2024/02/19 02:04:06;;;;;;;6.72;3.72;;;7.60;99.90;;;;;;4947283;28;20141;-68
2024/02/19 02:06:34;;;;;;;23.45;4.40;;;7.50;99.90;;;;;;4947737;28;20418;-69
2024/02/19 02:09:01;;;;;;;9.40;4.68;;;7.50;99.90;;;;;;4945425;28;20106;-70
2024/02/19 02:11:28;;;;;;;9.55;4.55;;;7.60;99.90;;;;;;4955684;28;20057;-69
2024/02/19 02:13:55;;;;;;;5.95;3.70;;;7.60;99.90;;;;;;4954524;28;20721;-70
2024/02/19 02:16:26;;;;;;;6.30;3.22;;;7.50;99.90;;;;;;4949192;28;20410;-69
2024/02/19 02:18:53;;;;;;;6.50;2.95;;;7.40;99.90;;;;;;4947575;28;20043;-70
2024/02/19 02:21:21;;;;;;;6.35;3.30;;;7.40;99.90;;;;;;4947504;28;20130;-70
2024/02/19 02:23:49;;;;;;;5.93;3.13;;;7.40;99.90;;;;;;4967723;28;20042;-69
2024/02/19 02:26:16;;;;;;;6.47;3.17;;;7.40;99.90;;;;;;4944731;28;20275;-69
2024/02/19 02:28:43;;;;;;;7.43;2.85;;;7.40;99.90;;;;;;4947935;28;20439;-70
2024/02/19 02:31:09;;;;;;;5.57;2.88;;;7.40;99.90;;;;;;4944350;28;20054;-70
2024/02/19 02:33:36;;;;;;;2.70;1.65;;;7.40;99.90;;;;;;4948658;28;20074;-70
2024/02/19 02:36:05;;;;;;;4.38;1.92;;;7.40;99.90;;;;;;4948690;28;20145;-70
2024/02/19 02:38:32;;;;;;;3.80;2.00;;;7.30;99.90;;;;;;4943406;28;20047;-71
2024/02/19 02:40:58;;;;;;;4.90;2.25;;;7.40;99.90;;;;;;4946692;28;20051;-71
2024/02/19 02:43:27;;;;;;;3.03;1.90;;;7.30;99.90;;;;;;4946328;28;20356;-71
2024/02/19 02:45:54;;;;;;;5.63;2.45;;;7.30;99.90;;;;;;4938169;28;20074;-69
2024/02/19 02:48:21;;;;;;;4.75;2.40;;;7.20;99.90;;;;;;4924059;28;20138;-71
2024/02/19 02:50:48;;;;;;;8.75;4.10;;;7.00;99.90;;;;;;4934568;28;20328;-70
2024/02/19 02:53:15;;;;;;;11.50;4.78;;;7.00;99.90;;;;;;4949786;28;20732;-69
2024/02/19 02:55:42;;;;;;;10.15;4.38;;;6.90;99.90;;;;;;4942911;28;20079;-69
2024/02/19 02:58:09;;;;;;;13.05;5.47;;;6.80;99.90;;;;;;4945567;28;20051;-70
2024/02/19 03:00:35;;;;;;;15.02;5.63;;;6.80;99.90;;;;;;4944738;28;20047;-69
2024/02/19 03:03:03;;;;;;;19.15;6.43;;;6.70;99.90;;;;;;4945505;28;20149;-69
2024/02/19 03:05:30;;;;;;;17.30;8.10;;;6.70;99.90;;;;;;4944547;28;20142;-69
2024/02/19 03:07:57;;;;;;;18.85;7.43;;;6.70;99.90;;;;;;4942875;28;20780;-69
2024/02/19 03:10:24;;;;;;;17.27;7.07;;;6.70;99.90;;;;;;4943021;28;20744;-69
2024/02/19 03:12:50;;;;;;;18.15;7.18;;;6.70;99.90;;;;;;4949453;28;20049;-69
2024/02/19 03:15:18;;;;;;;16.10;7.28;;;6.70;99.90;;;;;;4944545;28;20042;-69
2024/02/19 03:17:45;;;;;;;22.70;7.03;;;6.60;99.90;;;;;;4944584;28;20061;-70
2024/02/19 03:20:13;;;;;;;21.95;5.93;;;6.60;99.90;;;;;;4966758;23;20999;31
2024/02/19 03:22:43;;;;;;;14.57;5.53;;;6.60;99.90;;;;;;4894164;29;20048;-78
2024/02/19 03:25:10;;;;;;;8.60;4.50;;;6.60;99.90;;;;;;4894839;29;20044;-78
2024/02/19 03:27:37;;;;;;;6.88;3.63;;;6.50;99.90;;;;;;4902265;29;20117;-77
2024/02/19 03:30:06;;;;;;;7.88;2.92;;;6.50;99.90;;;;;;4915900;29;20051;-77
2024/02/19 03:32:33;;;;;;;6.80;3.22;;;6.50;99.90;;;;;;4907467;29;20052;-77
2024/02/19 03:35:01;;;;;;;12.45;3.95;;;6.50;99.90;;;;;;4907486;29;20048;-79
2024/02/19 03:37:28;;;;;;;8.05;3.85;;;6.50;99.90;;;;;;4940214;28;20052;-77
2024/02/19 03:39:54;;;;;;;10.52;3.80;;;6.50;99.90;;;;;;4908273;29;20078;-77
2024/02/19 03:42:21;;;;;;;7.60;4.00;;;6.50;99.90;;;;;;4914902;28;20488;-77
2024/02/19 03:44:48;;;;;;;9.63;2.97;;;6.40;99.90;;;;;;4922928;29;20571;-78
2024/02/19 03:47:18;;;;;;;9.80;3.75;;;6.40;99.90;;;;;;4909452;28;20504;-78
2024/02/19 03:49:45;;;;;;;9.68;4.20;;;6.40;99.90;;;;;;4928712;28;20072;-79
2024/02/19 03:52:11;;;;;;;9.50;4.47;;;6.40;99.90;;;;;;4913320;29;20056;-78
2024/02/19 03:54:38;;;;;;;7.75;3.58;;;6.40;99.90;;;;;;4936061;28;20047;-77
2024/02/19 03:57:05;;;;;;;9.40;3.70;;;6.40;99.90;;;;;;4909276;29;20075;-78
2024/02/19 03:59:32;;;;;;;7.70;2.60;;;6.40;99.90;;;;;;4906687;29;20459;-77
2024/02/19 04:01:59;;;;;;;5.50;2.47;;;6.40;99.90;;;;;;4923428;28;20518;-78
2024/02/19 04:04:26;;;;;;;5.80;3.08;;;6.40;99.90;;;;;;4925493;28;20844;-77
2024/02/19 04:06:53;;;;;;;13.32;3.53;;;6.40;99.90;;;;;;4922748;28;20047;-77
2024/02/19 04:09:21;;;;;;;16.60;3.40;;;6.40;99.90;;;;;;4913945;29;20063;-77
2024/02/19 04:11:48;;;;;;;10.95;3.47;;;6.40;99.90;;;;;;4909198;29;20058;-78
2024/02/19 04:14:14;;;;;;;7.68;3.95;;;6.40;99.90;;;;;;4905890;29;20358;-78
2024/02/19 04:16:42;;;;;;;12.32;4.10;;;6.30;99.90;;;;;;4917676;28;20055;-78
2024/02/19 04:19:09;;;;;;;9.43;4.05;;;6.40;99.90;;;;;;4909775;29;20052;-77
2024/02/19 04:21:43;;;;;;;10.25;3.88;;;6.40;99.90;;;;;;4941706;28;20567;-77
2024/02/19 04:24:12;;;;;;;17.13;4.97;;;6.30;99.90;;;;;;4929564;28;20043;-78
2024/02/19 04:26:39;;;;;;;10.15;4.07;;;6.30;99.90;;;;;;4923944;28;20062;-77
2024/02/19 04:29:06;;;;;;;16.05;4.55;;;6.40;99.90;;;;;;4933595;28;20070;-77
2024/02/19 04:31:32;;;;;;;13.57;5.47;;;6.40;99.90;;;;;;4911663;28;20058;-78
2024/02/19 04:34:01;;;;;;;16.67;5.40;;;6.40;99.90;;;;;;4920237;29;20574;-78
2024/02/19 04:36:28;;;;;;;15.50;5.28;;;6.30;99.90;;;;;;4918449;28;20058;-78
2024/02/19 04:38:55;;;;;;;24.95;6.07;;;6.40;99.90;;;;;;4927283;28;20052;-78
2024/02/19 04:41:22;;;;;;;16.00;6.25;;;6.40;99.90;;;;;;4941142;28;20040;-78
2024/02/19 04:43:49;;;;;;;16.60;4.70;;;6.30;99.90;;;;;;4928203;28;20051;-78
2024/02/19 04:46:16;;;;;;;13.68;5.45;;;6.40;99.90;;;;;;4898125;29;20056;-78
2024/02/19 04:48:43;;;;;;;24.27;5.45;;;6.30;99.90;;;;;;4908391;29;20047;-78
2024/02/19 04:51:10;;;;;;;15.60;5.00;;;6.30;99.90;;;;;;4912312;28;20071;-78
2024/02/19 04:53:37;;;;;;;18.55;6.22;;;6.30;99.90;;;;;;4914771;29;20051;-80
2024/02/19 04:56:04;;;;;;;26.33;7.75;;;6.40;99.90;;;;;;4936926;28;20143;-79
2024/02/19 04:58:30;;;;;;;16.52;6.38;;;6.30;99.90;;;;;;4915700;29;20047;-78
2024/02/19 05:00:57;;;;;;;25.70;7.43;;;6.30;99.90;;;;;;4914151;28;20039;-78
2024/02/19 05:03:24;;;;;;;23.83;7.45;;;6.40;99.90;;;;;;4914691;29;20064;-78
2024/02/19 05:05:51;;;;;;;26.15;6.25;;;6.40;99.90;;;;;;4896556;29;20083;-78
2024/02/19 05:08:18;;;;;;;17.27;6.50;;;6.30;99.90;;;;;;4899547;29;20143;-78
2024/02/19 05:10:46;;;;;;;22.92;6.63;;;6.30;99.90;;;;;;4903622;29;20039;-78
2024/02/19 05:13:13;;;;;;;20.52;5.82;;;6.30;99.90;;;;;;4894761;29;20048;-78
2024/02/19 05:15:40;;;;;;;18.30;6.05;;;6.30;99.90;;;;;;4916173;29;20124;-78
2024/02/19 05:18:06;;;;;;;20.35;6.38;;;6.30;99.90;;;;;;4924120;29;20055;-78
2024/02/19 05:20:35;;;;;;;23.92;5.85;;;6.30;99.90;;;;;;4867091;28;1080475;-78
2024/02/19 05:23:04;;;;;;;23.30;7.68;;;6.30;99.90;;;;;;4939259;28;20078;-78
2024/02/19 05:25:31;;;;;;;21.85;7.13;;;6.30;99.90;;;;;;4921235;28;20043;-77
2024/02/19 05:27:58;;;;;;;23.08;6.75;;;6.30;99.90;;;;;;4934849;28;20058;-78
2024/02/19 05:30:26;;;;;;;15.18;6.47;;;6.30;99.90;;;;;;4935274;28;20541;-78
2024/02/19 05:32:53;;;;;;;17.85;6.72;;;6.30;99.90;;;;;;4941574;28;20050;-78
2024/02/19 05:35:20;;;;;;;20.20;6.20;;;6.30;99.90;;;;;;4923515;28;20047;-78
2024/02/19 05:37:47;;;;;;;18.75;6.68;;;6.30;99.90;;;;;;4944956;28;20731;-78
2024/02/19 05:40:14;;;;;;;25.63;7.00;;;6.30;99.90;;;;;;4932083;28;20058;-78
2024/02/19 05:42:41;;;;;;;25.73;6.18;;;6.30;99.90;;;;;;4923780;28;21198;-78
2024/02/19 05:45:10;;;;;;;16.00;5.43;;;6.30;99.90;;;;;;4940280;28;20588;-78
2024/02/19 05:47:39;;;;;;;16.38;6.30;;;6.30;99.90;;;;;;4917067;28;20051;-78
2024/02/19 05:50:07;;;;;;;21.85;6.90;;;6.30;99.90;;;;;;4916692;28;20586;-78
2024/02/19 05:52:34;;;;;;;25.60;6.07;;;6.30;99.90;;;;;;4929185;28;20059;-79
2024/02/19 05:55:03;;;;;;;18.98;6.47;;;6.30;99.90;;;;;;4944308;28;20275;-79
2024/02/19 05:57:30;;;;;;;18.15;7.45;;;6.30;99.90;;;;;;4934824;28;20047;-79
2024/02/19 05:59:58;;;;;;;23.63;6.80;;;6.40;99.90;;;;;;4930326;28;20052;-78
2024/02/19 06:02:26;;;;;;;16.70;6.80;;;6.30;99.90;;;;;;4942169;28;20129;-79
2024/02/19 06:04:53;;;;;;;17.23;7.10;;;6.40;99.90;;;;;;4927759;28;20047;-78
2024/02/19 06:07:20;;;;;;;32.10;7.82;;;6.30;99.90;;;;;;4909174;28;20673;-79
2024/02/19 06:09:48;;;;;;;14.55;6.60;;;6.30;99.90;;;;;;4917113;28;20055;-79
2024/02/19 06:12:15;;;;;;;23.17;7.88;;;6.40;99.90;;;;;;4934942;28;20051;-78
2024/02/19 06:14:41;;;;;;;14.80;6.10;;;6.40;99.90;;;;;;4918984;28;20179;-79
2024/02/19 06:17:08;;;;;;;13.88;6.95;;;6.40;99.90;;;;;;4914644;28;20498;-79
2024/02/19 06:19:36;;;;;;;14.50;6.65;;;6.40;99.90;;;;;;4923355;28;20081;-79
2024/02/19 06:22:05;;;;;;;18.33;7.28;;;6.50;99.90;;;;;;4914946;28;20224;-80
2024/02/19 06:24:33;;;;;;;15.23;6.47;;;6.40;99.90;;;;;;4919072;28;20078;-79
2024/02/19 06:26:59;;;;;;;13.38;5.43;;;6.50;99.90;;;;;;4949845;28;20772;-79
2024/02/19 06:29:26;;;;;;;13.85;5.35;;;6.40;99.90;;;;;;4938575;28;21757;-79
2024/02/19 06:31:54;;;;;;;15.43;5.75;;;6.40;99.90;;;;;;4934461;28;20039;-79
2024/02/19 06:34:21;;;;;;;12.68;5.18;;;6.50;99.90;;;;;;4950726;28;20796;-79
2024/02/19 06:36:48;;;;;;;14.00;5.53;;;6.50;99.90;;;;;;4921541;28;20039;-78
2024/02/19 06:39:15;;;;;;;10.70;5.88;;;6.50;99.90;;;;;;4948891;28;20049;-79
2024/02/19 06:41:44;;;;;;;14.40;5.60;;;6.50;99.90;;;;;;4947327;28;20046;-79
2024/02/19 06:44:11;;;;;;;11.10;4.80;;;6.50;99.90;;;;;;4935078;28;20047;-80
2024/02/19 06:46:38;;;;;;;9.95;4.93;;;6.50;99.90;;;;;;4944877;28;20070;-79
2024/02/19 06:49:05;;;;;;;14.13;5.78;;;6.50;99.90;;;;;;4930772;28;20056;-79
2024/02/19 06:51:32;;;;;;;19.08;7.47;;;6.50;99.90;;;;;;4928393;28;20058;-79
2024/02/19 06:53:58;;;;;;;21.15;8.52;;;6.50;99.90;;;;;;4948660;28;20051;-79
2024/02/19 06:56:27;;;;;;;19.60;7.78;;;6.50;99.90;;;;;;4914221;28;20048;-78
2024/02/19 06:58:53;;;;;;;19.45;8.98;;;6.50;99.90;;;;;;4934810;28;20049;-79
2024/02/19 07:01:23;;;;;;;20.75;8.52;;;6.60;99.90;;;;;;4936348;28;20071;-79
2024/02/19 07:03:50;;;;;;;20.25;7.55;;;6.60;99.90;;;;;;4929333;28;20109;-79
2024/02/19 07:06:18;;;;;;;16.58;7.18;;;6.60;99.90;;;;;;4921644;28;20078;-79
2024/02/19 07:08:46;;;;;;;16.08;7.00;;;6.60;99.90;;;;;;4926025;28;20451;-79
2024/02/19 07:11:13;;;;;;;19.65;7.50;;;6.60;99.90;;;;;;4937070;28;20043;-80
2024/02/19 07:13:40;;;;;;;14.63;6.72;;;6.70;99.90;;;;;;4934437;28;20117;-80
2024/02/19 07:16:09;;;;;;;21.98;9.55;;;6.60;99.90;;;;;;4915742;28;20051;-79
2024/02/19 07:18:36;;;;;;;21.45;8.98;;;6.70;99.90;;;;;;4928492;28;20042;-79
2024/02/19 07:21:03;;;;;;;24.80;10.65;;;6.70;99.90;;;;;;4944098;28;20115;-79
2024/02/19 07:23:30;;;;;;;21.60;9.13;;;6.70;99.90;;;;;;4921515;28;20150;-77
2024/02/19 07:25:57;;;;;;;20.15;7.93;;;6.70;99.90;;;;;;4926594;28;20048;-79
2024/02/19 07:28:24;;;;;;;17.90;8.40;;;6.70;99.90;;;;;;4940877;28;20101;-79
2024/02/19 07:30:51;;;;;;;22.90;10.95;;;6.70;99.90;;;;;;4947774;28;20047;-79
2024/02/19 07:33:18;;;;;;;21.67;9.45;;;6.80;99.90;;;;;;4920120;28;20043;-79
2024/02/19 07:35:45;;;;;;;21.77;8.63;;;6.80;99.90;;;;;;4914377;28;20040;-78
2024/02/19 07:38:12;;;;;;;22.30;8.77;;;6.80;99.90;;;;;;4932817;28;20035;-78
2024/02/19 07:40:39;;;;;;;17.75;7.90;;;6.80;99.90;;;;;;4936500;28;20438;-79
2024/02/19 07:43:06;;;;;;;16.17;6.68;;;6.90;99.90;;;;;;4919798;28;20061;-79
2024/02/19 07:45:33;;;;;;;11.48;5.90;;;6.90;99.90;;;;;;4914677;28;20067;-79
2024/02/19 07:48:00;;;;;;;9.90;4.85;;;6.90;99.90;;;;;;4913438;28;20047;-80
2024/02/19 07:50:28;;;;;;;16.45;7.25;;;6.90;99.90;;;;;;4913930;28;20051;-78
2024/02/19 07:52:54;;;;;;;14.82;5.57;;;6.90;99.90;;;;;;4929479;28;20698;-80
2024/02/19 07:55:22;;;;;;;17.85;6.88;;;6.80;99.90;;;;;;4945848;28;20051;-80
2024/02/19 07:57:48;;;;;;;19.27;7.18;;;6.80;99.90;;;;;;4943442;28;20059;-80
2024/02/19 08:00:16;;;;;;;21.65;8.23;;;6.90;99.90;;;;;;4947140;28;20164;-78
2024/02/19 08:02:42;;;;;;;23.55;8.10;;;6.90;99.90;;;;;;4947750;28;20046;-78
2024/02/19 08:05:11;;;;;;;17.25;8.30;;;7.00;99.90;;;;;;4933758;28;20126;-78
2024/02/19 08:07:40;;;;;;;27.55;9.45;;;7.00;99.90;;;;;;4940041;28;20055;-79
2024/02/19 08:10:07;;;;;;;25.30;8.35;;;7.00;99.90;;;;;;4930512;28;20168;-79
2024/02/19 08:12:34;;;;;;;20.77;8.25;;;7.00;99.90;;;;;;4926373;28;20043;-79
2024/02/19 08:15:08;;;;;;;17.88;8.00;;;7.10;99.90;;;;;;4937786;28;20047;-79
2024/02/19 08:17:35;;;;;;;19.52;6.97;;;7.10;99.90;;;;;;4933683;28;20071;-79
2024/02/19 08:20:04;;;;;;;16.10;7.45;;;7.10;99.90;;;;;;4927703;28;20055;-79
2024/02/19 08:22:31;;;;;;;19.00;6.68;;;7.10;99.90;;;;;;4926019;28;20750;-81
2024/02/19 08:24:58;;;;;;;21.17;8.40;;;7.10;99.90;;;;;;4914532;28;20151;-80
2024/02/19 08:27:24;;;;;;;21.45;7.43;;;7.20;99.90;;;;;;4923409;28;20606;-80
2024/02/19 08:29:51;;;;;;;26.33;9.00;;;7.10;99.90;;;;;;4933074;28;20055;-79
2024/02/19 08:32:18;;;;;;;26.33;7.57;;;7.20;99.90;;;;;;4922130;28;20047;-79
2024/02/19 08:34:45;;;;;;;16.08;7.88;;;7.20;99.90;;;;;;4936424;28;20043;-79
2024/02/19 08:37:12;;;;;;;14.50;7.43;;;7.30;99.90;;;;;;4926902;28;20039;-80
2024/02/19 08:39:39;;;;;;;23.83;8.23;;;7.30;99.90;;;;;;4935520;28;20058;-79
2024/02/19 08:42:09;;;;;;;23.13;8.38;;;7.30;99.90;;;;;;4917172;28;20044;-79
2024/02/19 08:44:36;;;;;;;28.98;9.02;;;7.30;99.90;;;;;;4896541;29;20056;-78
2024/02/19 08:47:07;;;;;;;31.92;10.75;;;7.30;99.90;;;;;;4915404;28;20055;-78
2024/02/19 08:49:34;;;;;;;31.75;11.68;;;7.40;99.90;;;;;;4906547;28;20150;-78
2024/02/19 08:52:01;;;;;;;33.70;12.85;;;7.30;99.90;;;;;;4910811;28;20054;-79
2024/02/19 08:54:28;;;;;;;39.60;14.02;;;7.30;99.90;;;;;;4921065;28;20070;-78
2024/02/19 08:56:55;;;;;;;43.38;14.02;;;7.40;99.90;;;;;;4921759;28;20051;-78
2024/02/19 08:59:22;;;;;;;48.25;14.70;;;7.30;99.90;;;;;;4923020;28;20054;-79
2024/02/19 09:01:49;;;;;;;39.33;14.68;;;7.40;99.90;;;;;;4925673;28;20103;-79
2024/02/19 09:04:16;;;;;;;44.63;15.40;;;7.40;99.90;;;;;;4943342;28;20051;-79
2024/02/19 09:06:44;;;;;;;47.35;15.13;;;7.50;99.90;;;;;;4911146;28;20050;-78
2024/02/19 09:09:12;;;;;;;46.92;18.23;;;7.50;99.90;;;;;;4924337;28;20043;-79
2024/02/19 09:11:39;;;;;;;52.00;15.45;;;7.50;99.90;;;;;;4941335;28;20055;-78
2024/02/19 09:14:06;;;;;;;57.40;19.95;;;7.50;99.90;;;;;;4930361;28;20122;-78
2024/02/19 09:16:32;;;;;;;52.80;17.05;;;7.60;99.90;;;;;;4924306;28;20051;-78
2024/02/19 09:18:59;;;;;;;35.60;13.63;;;7.60;99.90;;;;;;4905752;28;20047;-78
2024/02/19 09:21:27;;;;;;;54.90;17.45;;;7.50;99.90;;;;;;4925833;28;20051;-79
2024/02/19 09:23:54;;;;;;;49.25;17.13;;;7.60;99.90;;;;;;4911974;28;20054;-79
2024/02/19 09:26:21;;;;;;;43.50;16.25;;;7.60;99.90;;;;;;4927123;28;20051;-78
2024/02/19 09:28:48;;;;;;;48.30;15.57;;;7.60;99.90;;;;;;4904726;28;20578;-78
2024/02/19 09:31:17;;;;;;;37.90;15.25;;;7.60;99.90;;;;;;4906377;28;20502;-78
2024/02/19 09:33:46;;;;;;;44.30;16.48;;;7.60;99.90;;;;;;4930835;28;20138;-78
2024/02/19 09:36:17;;;;;;;40.45;13.70;;;7.70;99.90;;;;;;4929049;28;20291;-78
2024/02/19 09:38:45;;;;;;;42.55;14.43;;;7.70;99.90;;;;;;4925843;28;20070;-78
2024/02/19 09:41:12;;;;;;;37.42;15.35;;;7.70;99.90;;;;;;4915037;28;20539;-78
2024/02/19 09:43:39;;;;;;;45.95;14.32;;;7.60;99.90;;;;;;4934714;28;20054;-77
2024/02/19 09:46:15;;;;;;;44.97;16.88;;;7.70;99.90;;;;;;4916363;28;20039;-78
2024/02/19 09:48:50;;;;;;;59.45;18.50;;;7.60;99.90;;;;;;4914093;28;20082;-77
2024/02/19 09:51:20;;;;;;;57.72;21.75;;;7.60;99.90;;;;;;4933429;28;20071;-78
2024/02/19 09:54:03;;;;;;;62.42;21.58;;;7.70;99.90;;;;;;4933719;28;20872;-79
2024/02/19 09:56:32;;;;;;;74.15;24.65;;;7.80;99.90;;;;;;4940604;28;20545;-79
2024/02/19 09:58:59;;;;;;;67.80;26.23;;;7.80;99.90;;;;;;4937908;28;20522;-80
2024/02/19 10:01:26;;;;;;;66.18;23.27;;;7.90;99.90;;;;;;4933495;28;20693;-80
2024/02/19 10:03:53;;;;;;;52.50;21.17;;;7.90;99.90;;;;;;4937865;28;20138;-80
2024/02/19 10:06:21;;;;;;;61.00;22.83;;;8.00;99.90;;;;;;4938587;28;20043;-79
2024/02/19 10:08:48;;;;;;;78.25;27.33;;;8.00;99.90;;;;;;4929829;28;20070;-80
2024/02/19 10:11:15;;;;;;;56.83;22.05;;;7.90;99.90;;;;;;4935716;28;20051;-80
2024/02/19 10:13:42;;;;;;;68.28;21.17;;;7.90;99.90;;;;;;4931364;28;20855;-79
2024/02/19 10:16:10;;;;;;;65.80;21.98;;;8.00;99.90;;;;;;4949407;28;20054;-80
2024/02/19 10:18:40;;;;;;;54.25;20.33;;;8.00;99.90;;;;;;4915092;28;20499;-79
2024/02/19 10:21:09;;;;;;;33.83;13.30;;;8.00;99.90;;;;;;4907898;28;20046;-79
2024/02/19 10:23:36;;;;;;;56.22;21.05;;;7.90;99.90;;;;;;4927204;28;20128;-79
2024/02/19 10:26:05;;;;;;;52.10;20.17;;;8.00;99.90;;;;;;4923644;28;20035;-78
2024/02/19 10:28:33;;;;;;;58.95;23.42;;;8.00;99.90;;;;;;4914295;28;20449;-79
2024/02/19 10:31:01;;;;;;;68.32;26.30;;;8.10;99.90;;;;;;4925948;28;20506;-79
2024/02/19 10:33:28;;;;;;;73.78;26.13;;;8.00;99.90;;;;;;4934526;28;20043;-79
2024/02/19 10:35:55;;;;;;;67.25;25.10;;;8.10;99.90;;;;;;4939240;28;20043;-79
2024/02/19 10:38:22;;;;;;;56.42;22.65;;;8.10;99.90;;;;;;4927051;28;20054;-79
2024/02/19 10:40:49;;;;;;;53.65;20.60;;;8.10;99.90;;;;;;4937445;28;20066;-79
2024/02/19 10:43:17;;;;;;;42.55;17.27;;;8.20;99.90;;;;;;4913288;28;20050;-80
2024/02/19 10:45:47;;;;;;;56.53;22.27;;;8.10;99.90;;;;;;4938747;28;20081;-79
2024/02/19 10:48:14;;;;;;;72.90;27.23;;;8.20;99.90;;;;;;4916419;28;20051;-79
2024/02/19 10:50:41;;;;;;;72.57;28.45;;;8.20;99.90;;;;;;4940321;28;20499;-79
2024/02/19 10:53:09;;;;;;;71.13;30.17;;;8.20;99.90;;;;;;4941349;28;20499;-79
2024/02/19 10:55:36;;;;;;;87.57;35.58;;;8.20;99.90;;;;;;4914976;28;20573;-78
2024/02/19 10:58:25;;;;;;;93.53;38.60;;;8.30;99.90;;;;;;4944293;28;20047;-79
2024/02/19 11:00:52;;;;;;;86.47;36.47;;;8.40;99.90;;;;;;4946270;28;20094;-79
2024/02/19 11:03:22;;;;;;;105.95;39.00;;;8.30;99.90;;;;;;4939166;28;20042;-79
2024/02/19 11:05:50;;;;;;;92.80;37.22;;;8.30;99.90;;;;;;4909622;28;20074;-80
2024/02/19 11:08:21;;;;;;;70.38;30.27;;;8.40;99.90;;;;;;4921110;28;20051;-80
2024/02/19 11:10:52;;;;;;;74.43;33.53;;;8.40;99.90;;;;;;4923599;28;20541;-80
2024/02/19 11:13:21;;;;;;;76.55;31.70;;;8.40;99.90;;;;;;4913430;28;20061;-79
2024/02/19 11:15:49;;;;;;;96.57;37.08;;;8.50;99.90;;;;;;4921314;28;20070;-79
2024/02/19 11:18:17;;;;;;;97.57;40.58;;;8.50;99.90;;;;;;4929822;28;20047;-79
2024/02/19 11:20:45;;;;;;;111.85;38.88;;;8.50;99.90;;;;;;4929309;28;20547;-79
2024/02/19 11:23:15;;;;;;;104.55;43.97;;;8.50;99.90;;;;;;4917528;28;20051;-79
2024/02/19 11:25:44;;;;;;;94.15;40.25;;;8.50;99.90;;;;;;4920688;28;20051;-79
2024/02/19 11:28:12;;;;;;;93.10;39.00;;;8.60;99.90;;;;;;4922737;28;20047;-79
2024/02/19 11:30:39;;;;;;;110.82;44.85;;;8.70;99.90;;;;;;4932673;28;20047;-79
2024/02/19 11:33:09;;;;;;;102.88;45.25;;;8.70;99.90;;;;;;4929465;28;20122;-79
2024/02/19 11:35:36;;;;;;;102.88;42.03;;;8.80;99.90;;;;;;4931940;28;20605;-78
2024/02/19 11:38:04;;;;;;;94.30;40.92;;;8.80;99.90;;;;;;4939339;28;20046;-78
2024/02/19 11:40:31;;;;;;;82.38;38.97;;;8.90;99.90;;;;;;4930140;28;20492;-78
2024/02/19 11:43:04;;;;;;;95.65;42.05;;;8.80;99.90;;;;;;4914830;28;20793;-78
2024/02/19 11:45:32;;;;;;;95.50;40.97;;;8.90;99.90;;;;;;4912427;28;20189;-78
2024/02/19 11:47:59;;;;;;;78.63;35.67;;;9.00;99.90;;;;;;4927347;28;20055;-78
2024/02/19 11:50:29;;;;;;;83.38;38.80;;;8.80;99.90;;;;;;4926601;28;20450;-78
2024/02/19 11:53:00;;;;;;;94.00;40.45;;;8.80;99.90;;;;;;4939383;28;20050;-77
2024/02/19 11:55:30;;;;;;;80.28;38.53;;;8.70;99.90;;;;;;4932409;28;20441;-78
2024/02/19 11:58:00;;;;;;;88.82;41.53;;;8.80;99.90;;;;;;4925422;28;20039;-77
2024/02/19 12:00:30;;;;;;;81.63;35.63;;;8.80;99.90;;;;;;4944394;28;20073;-78
2024/02/19 12:02:58;;;;;;;79.63;37.13;;;8.70;99.90;;;;;;4942936;28;20054;-77
2024/02/19 12:05:25;;;;;;;84.72;38.35;;;8.80;99.90;;;;;;4927028;28;20051;-78
2024/02/19 12:07:53;;;;;;;75.63;36.33;;;8.70;99.90;;;;;;4898895;28;20057;-78
2024/02/19 12:10:20;;;;;;;86.07;39.58;;;8.80;99.90;;;;;;4924206;28;20093;-78
2024/02/19 12:12:49;;;;;;;83.07;41.95;;;8.90;99.90;;;;;;4913944;28;20118;-78
2024/02/19 12:15:16;;;;;;;87.72;38.78;;;9.00;99.90;;;;;;4933788;28;20039;-78
2024/02/19 12:17:43;;;;;;;83.28;34.85;;;8.90;99.90;;;;;;4910904;28;20055;-77
2024/02/19 12:20:11;;;;;;;81.00;37.53;;;8.90;99.90;;;;;;4923300;28;20854;-77
2024/02/19 12:22:42;;;;;;;87.22;38.42;;;8.80;99.90;;;;;;4936333;28;20080;-78
2024/02/19 12:25:11;;;;;;;90.43;39.53;;;8.80;99.90;;;;;;4916332;28;20049;-78
2024/02/19 12:27:38;;;;;;;84.00;39.63;;;8.90;99.90;;;;;;4926681;28;20274;-78
2024/02/19 12:30:06;;;;;;;90.55;39.88;;;9.00;99.90;;;;;;4935318;28;20065;-78
2024/02/19 12:32:33;;;;;;;86.53;39.00;;;9.10;99.90;;;;;;4932425;28;20222;-78
2024/02/19 12:35:00;;;;;;;96.07;36.80;;;9.20;99.90;;;;;;4933960;28;20535;-77
2024/02/19 12:37:31;;;;;;;86.72;40.85;;;9.20;99.90;;;;;;4913432;28;20562;-77
2024/02/19 12:40:02;;;;;;;78.35;38.25;;;9.20;99.90;;;;;;4937382;28;20121;-78
2024/02/19 12:42:29;;;;;;;80.10;38.53;;;9.20;99.90;;;;;;4916705;28;20047;-78
2024/02/19 12:44:56;;;;;;;81.50;39.72;;;9.20;99.90;;;;;;4913155;29;20052;-78
2024/02/19 12:47:23;;;;;;;79.63;38.10;;;9.20;99.90;;;;;;4931495;28;20484;-77